Time;durP1;ratioP1;P1;durP2;ratioP2;P2;SDS_P1;SDS_P2;PMS_P1;PMS_P2;Temp;Humidity;BMP_temperature;BMP_pressure;BME280_temperature;BME280_humidity;BME280_pressure;Samples;Min_cycle;Max_cycle;Signal;HPM_P1;HPM_P2
2021/11/22 00:00:10;;;;;;;5.63;0.75;;;;;;;;;;4986533;28;20057;-53
2021/11/22 00:02:36;;;;;;;1.80;0.80;;;;;;;;;;4989477;28;20038;-53
2021/11/22 00:05:03;;;;;;;3.60;1.15;;;;;;;;;;5024015;28;20054;-57
2021/11/22 00:07:31;;;;;;;2.10;0.88;;;;;;;;;;5000439;28;20045;-57
2021/11/22 00:09:58;;;;;;;0.90;0.70;;;;;;;;;;5004472;28;20131;-54
2021/11/22 00:12:26;;;;;;;3.03;0.68;;;;;;;;;;5002600;28;20101;-56
2021/11/22 00:14:52;;;;;;;3.03;0.98;;;;;;;;;;5023249;28;20054;-53
2021/11/22 00:17:19;;;;;;;2.88;0.77;;;;;;;;;;5004031;28;20041;-56
2021/11/22 00:19:48;;;;;;;4.47;1.15;;;;;;;;;;5001731;28;20057;-54
2021/11/22 00:22:15;;;;;;;3.60;0.82;;;;;;;;;;5005156;28;20046;-57
2021/11/22 00:24:43;;;;;;;2.80;0.70;;;;;;;;;;5004503;28;20041;-57
2021/11/22 00:27:09;;;;;;;3.00;0.65;;;;;;;;;;5008366;28;20033;-56
2021/11/22 00:29:37;;;;;;;6.00;0.77;;;;;;;;;;4993504;28;20100;-56
2021/11/22 00:32:05;;;;;;;3.00;0.50;;;;;;;;;;4984480;28;20052;-55
2021/11/22 00:34:32;;;;;;;3.53;0.90;;;;;;;;;;4997488;28;20042;-52
2021/11/22 00:36:59;;;;;;;2.38;0.85;;;;;;;;;;4988021;28;20426;-55
2021/11/22 00:39:25;;;;;;;2.25;0.80;;;;;;;;;;4983916;28;20175;-54
2021/11/22 00:41:53;;;;;;;2.30;0.70;;;;;;;;;;4984820;28;20046;-57
2021/11/22 00:44:20;;;;;;;2.42;0.80;;;;;;;;;;4984525;28;20114;-54
2021/11/22 00:46:47;;;;;;;4.35;0.88;;;;;;;;;;5004102;28;20025;-54
2021/11/22 00:49:14;;;;;;;4.97;0.95;;;;;;;;;;5021180;28;20041;-56
2021/11/22 00:51:41;;;;;;;3.40;0.63;;;;;;;;;;5023738;28;20041;-55
2021/11/22 00:54:07;;;;;;;2.17;0.77;;;;;;;;;;5040774;28;20292;-56
2021/11/22 00:56:36;;;;;;;3.25;0.60;;;;;;;;;;5019022;28;20090;-55
2021/11/22 00:59:05;;;;;;;3.22;0.77;;;;;;;;;;5022986;28;20056;-54
2021/11/22 01:01:31;;;;;;;;;;;;;;;;;;5019783;28;20119;-56
2021/11/22 01:03:57;;;;;;;5.07;0.85;;;;;;;;;;5002557;28;19926;-55
2021/11/22 01:06:25;;;;;;;3.25;0.73;;;;;;;;;;4998216;28;20042;-55
2021/11/22 01:08:52;;;;;;;0.75;0.55;;;;;;;;;;5003422;28;20556;-55
2021/11/22 01:11:18;;;;;;;4.75;0.57;;;;;;;;;;5002204;28;20090;-55
2021/11/22 01:13:45;;;;;;;2.03;0.60;;;;;;;;;;5004186;28;20096;-56
2021/11/22 01:16:13;;;;;;;3.33;0.70;;;;;;;;;;5000603;28;20073;-57
2021/11/22 01:18:40;;;;;;;3.47;1.07;;;;;;;;;;5003617;28;20053;-54
2021/11/22 01:21:07;;;;;;;4.18;0.55;;;;;;;;;;4998379;28;20045;-57
2021/11/22 01:23:33;;;;;;;4.30;0.65;;;;;;;;;;5001632;28;20099;-56
2021/11/22 01:26:00;;;;;;;4.78;0.80;;;;;;;;;;4998541;28;20030;-55
2021/11/22 01:28:27;;;;;;;1.90;0.70;;;;;;;;;;4998229;28;20123;-57
2021/11/22 01:30:54;;;;;;;4.70;0.70;;;;;;;;;;4982667;28;20038;-56
2021/11/22 01:33:21;;;;;;;1.35;0.52;;;;;;;;;;4990817;28;20041;-55
2021/11/22 01:35:48;;;;;;;6.57;0.70;;;;;;;;;;5005190;28;20053;-55
2021/11/22 01:38:15;;;;;;;2.88;0.60;;;;;;;;;;4984110;28;20116;-54
2021/11/22 01:40:42;;;;;;;6.55;0.60;;;;;;;;;;4984867;28;20177;-54
2021/11/22 01:43:10;;;;;;;1.92;0.57;;;;;;;;;;5013061;28;20038;-54
2021/11/22 01:45:37;;;;;;;1.88;0.50;;;;;;;;;;5005124;28;20053;-57
2021/11/22 01:48:03;;;;;;;2.22;0.65;;;;;;;;;;5001637;28;20121;-55
2021/11/22 01:50:31;;;;;;;3.70;0.68;;;;;;;;;;5006370;28;20297;-57
2021/11/22 01:52:58;;;;;;;2.83;0.55;;;;;;;;;;5013977;28;20037;-56
2021/11/22 01:55:26;;;;;;;0.85;0.60;;;;;;;;;;5023452;28;20037;-57
2021/11/22 01:57:53;;;;;;;3.67;0.70;;;;;;;;;;5012522;28;20057;-55
2021/11/22 02:00:22;;;;;;;1.85;0.60;;;;;;;;;;5004228;28;20052;-56
2021/11/22 02:02:49;;;;;;;1.77;0.52;;;;;;;;;;4999993;28;20042;-56
2021/11/22 02:05:15;;;;;;;2.03;0.65;;;;;;;;;;5020672;28;20045;-56
2021/11/22 02:07:43;;;;;;;3.38;0.60;;;;;;;;;;5001718;28;20549;-55
2021/11/22 02:10:11;;;;;;;1.80;0.50;;;;;;;;;;5021769;28;20053;-56
2021/11/22 02:12:38;;;;;;;1.48;0.43;;;;;;;;;;5018204;28;20049;-52
2021/11/22 02:15:05;;;;;;;1.38;0.47;;;;;;;;;;5002697;28;20052;-55
2021/11/22 02:17:33;;;;;;;2.17;0.60;;;;;;;;;;5002691;28;20045;-55
2021/11/22 02:20:06;;;;;;;2.08;0.57;;;;;;;;;;5017050;28;20030;-55
2021/11/22 02:22:33;;;;;;;3.80;0.57;;;;;;;;;;5022692;28;20053;-56
2021/11/22 02:25:00;;;;;;;1.20;0.50;;;;;;;;;;4987605;28;20076;-55
2021/11/22 02:27:26;;;;;;;2.45;0.75;;;;;;;;;;4985101;28;20049;-53
2021/11/22 02:29:53;;;;;;;1.13;0.60;;;;;;;;;;4983110;28;20038;-54
2021/11/22 02:32:19;;;;;;;0.75;0.50;;;;;;;;;;4982692;28;20595;-54
2021/11/22 02:34:46;;;;;;;1.73;0.70;;;;;;;;;;4992023;28;20053;-57
2021/11/22 02:37:14;;;;;;;2.22;0.50;;;;;;;;;;4983011;28;20038;-56
2021/11/22 02:39:41;;;;;;;3.10;0.60;;;;;;;;;;4987320;28;20046;-53
2021/11/22 02:42:12;;;;;;;2.15;0.57;;;;;;;;;;5000608;28;20066;-53
2021/11/22 02:44:38;;;;;;;1.75;0.60;;;;;;;;;;4995598;28;20050;-53
2021/11/22 02:47:05;;;;;;;0.68;0.43;;;;;;;;;;5001312;28;20042;-55
2021/11/22 02:49:32;;;;;;;5.43;0.65;;;;;;;;;;4998604;28;20123;-52
2021/11/22 02:51:58;;;;;;;3.78;0.43;;;;;;;;;;5003001;28;20300;-57
2021/11/22 02:54:26;;;;;;;1.63;0.45;;;;;;;;;;4998641;28;20050;-53
2021/11/22 02:56:52;;;;;;;7.57;0.73;;;;;;;;;;4984784;28;20102;-56
2021/11/22 02:59:19;;;;;;;1.63;0.52;;;;;;;;;;4984825;28;20272;-56
2021/11/22 03:01:46;;;;;;;3.35;0.50;;;;;;;;;;5005053;28;20065;-56
2021/11/22 03:04:12;;;;;;;2.05;0.60;;;;;;;;;;5006210;28;20058;-56
2021/11/22 03:06:39;;;;;;;1.30;0.55;;;;;;;;;;5020719;28;20045;-54
2021/11/22 03:09:06;;;;;;;1.75;0.50;;;;;;;;;;5025982;28;20049;-57
2021/11/22 03:11:33;;;;;;;0.63;0.38;;;;;;;;;;5004476;28;20046;-56
2021/11/22 03:14:00;;;;;;;1.30;0.53;;;;;;;;;;5024708;28;20041;-55
2021/11/22 03:16:29;;;;;;;4.15;0.55;;;;;;;;;;5004766;28;20033;-57
2021/11/22 03:19:04;;;;;;;0.65;0.40;;;;;;;;;;5009319;28;20057;-56
2021/11/22 03:21:30;;;;;;;2.47;0.57;;;;;;;;;;5019054;28;20041;-55
2021/11/22 03:23:57;;;;;;;2.60;0.50;;;;;;;;;;5007037;28;20111;-54
2021/11/22 03:26:23;;;;;;;2.78;0.57;;;;;;;;;;4994194;28;20045;-53
2021/11/22 03:28:51;;;;;;;2.65;0.57;;;;;;;;;;4986950;28;20057;-56
2021/11/22 03:31:18;;;;;;;1.80;0.50;;;;;;;;;;4990159;28;20065;-56
2021/11/22 03:33:46;;;;;;;1.70;0.50;;;;;;;;;;5004487;28;20057;-53
2021/11/22 03:36:13;;;;;;;0.52;0.40;;;;;;;;;;5002346;28;20045;-53
2021/11/22 03:38:42;;;;;;;1.75;0.68;;;;;;;;;;5005869;28;20034;-56
2021/11/22 03:41:12;;;;;;;1.35;0.43;;;;;;;;;;5001149;28;20045;-54
2021/11/22 03:43:46;;;;;;;2.63;0.57;;;;;;;;;;5003724;28;20038;-57
2021/11/22 03:46:14;;;;;;;1.98;0.52;;;;;;;;;;4984481;28;20105;-55
2021/11/22 03:48:41;;;;;;;7.30;0.70;;;;;;;;;;5004929;28;20065;-56
2021/11/22 03:51:07;;;;;;;1.85;0.68;;;;;;;;;;5003713;28;20115;-57
2021/11/22 03:53:34;;;;;;;0.38;0.22;;;;;;;;;;5002704;28;20120;-56
2021/11/22 03:56:01;;;;;;;1.20;0.45;;;;;;;;;;5005436;28;20038;-57
2021/11/22 03:58:28;;;;;;;1.27;0.40;;;;;;;;;;4997962;28;20473;-56
2021/11/22 04:00:54;;;;;;;1.05;0.50;;;;;;;;;;5001725;28;20042;-56
2021/11/22 04:03:22;;;;;;;2.25;0.60;;;;;;;;;;5001618;28;20038;-55
2021/11/22 04:05:49;;;;;;;2.83;0.57;;;;;;;;;;5005843;28;20042;-55
2021/11/22 04:08:16;;;;;;;4.03;0.75;;;;;;;;;;5023762;28;20041;-53
2021/11/22 04:10:42;;;;;;;5.32;0.90;;;;;;;;;;5025196;28;20119;-55
2021/11/22 04:13:09;;;;;;;3.35;0.45;;;;;;;;;;5008984;28;20049;-56
2021/11/22 04:15:37;;;;;;;2.20;0.70;;;;;;;;;;5006664;28;20123;-53
2021/11/22 04:18:03;;;;;;;1.88;0.50;;;;;;;;;;5020526;28;20052;-54
2021/11/22 04:20:32;;;;;;;1.80;0.52;;;;;;;;;;5005789;28;20038;-56
2021/11/22 04:22:58;;;;;;;5.88;0.77;;;;;;;;;;4998187;28;20045;-55
2021/11/22 04:25:25;;;;;;;1.63;0.40;;;;;;;;;;5002597;28;20050;-54
2021/11/22 04:27:51;;;;;;;1.98;0.50;;;;;;;;;;5001775;28;20042;-56
2021/11/22 04:30:18;;;;;;;2.67;0.70;;;;;;;;;;5005486;28;20045;-53
2021/11/22 04:32:45;;;;;;;0.60;0.45;;;;;;;;;;5002841;28;20045;-56
2021/11/22 04:35:13;;;;;;;2.85;0.57;;;;;;;;;;5018976;28;20056;-53
2021/11/22 04:37:44;;;;;;;5.40;0.68;;;;;;;;;;5024783;28;20041;-53
2021/11/22 04:40:13;;;;;;;1.20;0.50;;;;;;;;;;5002902;28;20055;-57
2021/11/22 04:42:45;;;;;;;4.20;0.50;;;;;;;;;;5006920;28;20049;-55
2021/11/22 04:45:11;;;;;;;4.10;0.50;;;;;;;;;;5032492;28;20034;-56
2021/11/22 04:47:37;;;;;;;1.70;0.30;;;;;;;;;;5025931;28;20048;-54
2021/11/22 04:50:04;;;;;;;4.45;0.52;;;;;;;;;;5020424;28;20045;-55
2021/11/22 04:52:31;;;;;;;3.20;0.68;;;;;;;;;;5024683;28;20037;-56
2021/11/22 04:54:59;;;;;;;3.72;0.60;;;;;;;;;;5003285;28;20099;-56
2021/11/22 04:57:25;;;;;;;1.85;0.50;;;;;;;;;;5004675;28;20056;-55
2021/11/22 04:59:52;;;;;;;6.00;1.25;;;;;;;;;;5009062;28;20049;-53
2021/11/22 05:02:18;;;;;;;2.38;0.60;;;;;;;;;;5019595;28;20138;-55
2021/11/22 05:04:45;;;;;;;1.23;0.52;;;;;;;;;;5000818;28;20061;-54
2021/11/22 05:07:12;;;;;;;2.90;0.47;;;;;;;;;;5004695;28;20041;-54
2021/11/22 05:09:39;;;;;;;1.23;0.57;;;;;;;;;;5001291;28;20049;-53
2021/11/22 05:12:07;;;;;;;0.38;0.38;;;;;;;;;;4997768;28;20074;-54
2021/11/22 05:14:34;;;;;;;0.80;0.25;;;;;;;;;;4982979;28;20061;-55
2021/11/22 05:17:00;;;;;;;1.35;0.40;;;;;;;;;;4984043;28;20038;-55
2021/11/22 05:19:31;;;;;;;1.33;0.60;;;;;;;;;;4985186;28;20034;-52
2021/11/22 05:21:58;;;;;;;0.77;0.28;;;;;;;;;;4981615;28;20086;-56
2021/11/22 05:24:25;;;;;;;0.60;0.40;;;;;;;;;;4985419;28;20048;-57
2021/11/22 05:26:51;;;;;;;2.97;0.80;;;;;;;;;;4996826;28;20041;-57
2021/11/22 05:29:19;;;;;;;2.83;0.55;;;;;;;;;;5004579;28;20037;-55
2021/11/22 05:31:46;;;;;;;2.13;0.63;;;;;;;;;;4988239;28;20054;-54
2021/11/22 05:34:17;;;;;;;1.27;0.35;;;;;;;;;;4997713;28;20046;-56
2021/11/22 05:36:46;;;;;;;0.75;0.40;;;;;;;;;;4990020;28;20041;-55
2021/11/22 05:39:13;;;;;;;0.40;0.35;;;;;;;;;;4984860;28;20091;-55
2021/11/22 05:41:39;;;;;;;0.35;0.30;;;;;;;;;;4989117;28;20042;-56
2021/11/22 05:44:06;;;;;;;2.05;0.43;;;;;;;;;;4985648;28;20066;-53
2021/11/22 05:46:34;;;;;;;1.20;0.52;;;;;;;;;;4987473;28;20053;-55
2021/11/22 05:49:01;;;;;;;0.80;0.50;;;;;;;;;;5004463;28;20153;-54
2021/11/22 05:51:27;;;;;;;0.65;0.47;;;;;;;;;;4996632;28;20344;-54
2021/11/22 05:53:56;;;;;;;1.17;0.50;;;;;;;;;;4984255;28;20046;-56
2021/11/22 05:56:23;;;;;;;0.47;0.30;;;;;;;;;;4983612;28;20052;-55
2021/11/22 05:58:51;;;;;;;6.75;0.70;;;;;;;;;;5005116;28;20056;-54
2021/11/22 06:01:18;;;;;;;4.65;1.50;;;;;;;;;;5004688;28;20056;-54
2021/11/22 06:03:46;;;;;;;3.88;1.10;;;;;;;;;;5000699;28;20046;-56
2021/11/22 06:06:12;;;;;;;3.17;0.88;;;;;;;;;;5006039;28;20042;-56
2021/11/22 06:08:41;;;;;;;1.60;0.68;;;;;;;;;;4985977;28;20130;-56
2021/11/22 06:11:07;;;;;;;;;;;;;;;;;;4989768;28;20509;-56
2021/11/22 06:13:34;;;;;;;1.88;0.55;;;;;;;;;;4985694;28;19917;-52
2021/11/22 06:16:00;;;;;;;1.95;0.55;;;;;;;;;;5014741;28;20034;-56
2021/11/22 06:18:27;;;;;;;5.43;0.80;;;;;;;;;;4978518;28;20050;-56
2021/11/22 06:20:57;;;;;;;1.13;0.60;;;;;;;;;;5009853;28;20097;-57
2021/11/22 06:23:23;;;;;;;1.17;0.43;;;;;;;;;;4988136;28;20038;-56
2021/11/22 06:25:50;;;;;;;3.42;0.90;;;;;;;;;;4992716;28;20042;-54
2021/11/22 06:28:19;;;;;;;1.40;0.70;;;;;;;;;;4989444;28;20077;-55
2021/11/22 06:30:46;;;;;;;3.50;0.80;;;;;;;;;;5010002;28;20030;-53
2021/11/22 06:33:12;;;;;;;2.90;1.10;;;;;;;;;;4991047;28;20132;-55
2021/11/22 06:35:39;;;;;;;5.38;1.00;;;;;;;;;;4995328;28;20058;-57
2021/11/22 06:38:07;;;;;;;1.77;0.73;;;;;;;;;;4991675;28;20064;-55
2021/11/22 06:40:34;;;;;;;1.33;0.50;;;;;;;;;;5009685;28;20049;-55
2021/11/22 06:43:00;;;;;;;4.75;0.80;;;;;;;;;;4993429;28;20049;-55
2021/11/22 06:45:27;;;;;;;3.50;0.68;;;;;;;;;;5010036;28;20041;-56
2021/11/22 06:47:54;;;;;;;3.33;0.80;;;;;;;;;;4999437;28;20045;-56
2021/11/22 06:50:21;;;;;;;1.55;0.52;;;;;;;;;;5003493;28;20152;-54
2021/11/22 06:52:48;;;;;;;2.65;0.60;;;;;;;;;;4995272;28;20042;-52
2021/11/22 06:55:16;;;;;;;7.30;1.25;;;;;;;;;;4992061;28;20041;-54
2021/11/22 06:57:42;;;;;;;7.97;2.05;;;;;;;;;;4986912;28;20103;-55
2021/11/22 07:00:11;;;;;;;5.55;1.70;;;;;;;;;;4982174;28;20046;-55
2021/11/22 07:02:38;;;;;;;;;;;;;;;;;;4995434;28;20045;-56
2021/11/22 07:05:05;;;;;;;6.28;1.27;;;;;;;;;;5003552;28;19962;-55
2021/11/22 07:07:31;;;;;;;3.58;1.00;;;;;;;;;;5008233;28;20128;-52
2021/11/22 07:10:07;;;;;;;3.13;1.00;;;;;;;;;;5002856;28;20054;-54
2021/11/22 07:12:35;;;;;;;2.03;0.73;;;;;;;;;;5008012;28;20032;-56
2021/11/22 07:15:02;;;;;;;5.00;1.30;;;;;;;;;;4996936;28;20042;-53
2021/11/22 07:17:28;;;;;;;4.03;1.00;;;;;;;;;;4990652;28;20062;-53
2021/11/22 07:19:56;;;;;;;5.97;1.15;;;;;;;;;;4987050;28;20116;-53
2021/11/22 07:22:23;;;;;;;2.70;0.90;;;;;;;;;;4990297;28;20038;-50
2021/11/22 07:24:49;;;;;;;4.15;1.00;;;;;;;;;;4987240;28;20030;-56
2021/11/22 07:27:16;;;;;;;4.90;1.00;;;;;;;;;;4990659;28;20038;-56
2021/11/22 07:29:47;;;;;;;4.13;1.63;;;;;;;;;;4991791;28;20049;-52
2021/11/22 07:32:14;;;;;;;4.38;1.63;;;;;;;;;;5006860;28;20041;-56
2021/11/22 07:34:40;;;;;;;4.35;1.35;;;;;;;;;;5009064;28;20034;-53
2021/11/22 07:37:07;;;;;;;4.00;1.13;;;;;;;;;;5021627;28;20033;-55
2021/11/22 07:39:34;;;;;;;11.27;1.30;;;;;;;;;;5007507;28;20042;-54
2021/11/22 07:42:00;;;;;;;2.65;1.23;;;;;;;;;;4990117;28;20115;-54
2021/11/22 07:44:27;;;;;;;2.20;1.00;;;;;;;;;;4988789;28;20058;-55
2021/11/22 07:46:56;;;;;;;3.70;1.00;;;;;;;;;;5004520;28;20061;-54
2021/11/22 07:49:23;;;;;;;2.67;0.90;;;;;;;;;;4989451;28;20030;-53
2021/11/22 07:51:49;;;;;;;3.53;1.15;;;;;;;;;;4995986;28;20057;-53
2021/11/22 07:54:15;;;;;;;2.60;1.05;;;;;;;;;;5008914;28;20036;-52
2021/11/22 07:56:42;;;;;;;3.67;1.05;;;;;;;;;;5004465;28;20149;-52
2021/11/22 07:59:11;;;;;;;5.10;1.17;;;;;;;;;;5009427;28;20033;-53
2021/11/22 08:01:37;;;;;;;;;;;;;;;;;;5005534;28;20512;-54
2021/11/22 08:04:12;;;;;;;2.13;1.00;;;;;;;;;;5023569;28;19928;-54
2021/11/22 08:06:43;;;;;;;3.28;1.25;;;;;;;;;;5002088;28;20038;-55
2021/11/22 08:09:15;;;;;;;4.68;1.67;;;;;;;;;;4988157;28;20034;-54
2021/11/22 08:11:52;;;;;;;6.13;2.50;;;;;;;;;;5003927;28;20049;-53
2021/11/22 08:14:18;;;;;;;7.40;2.20;;;;;;;;;;4987688;28;20026;-55
2021/11/22 08:16:45;;;;;;;7.50;2.92;;;;;;;;;;4985647;28;20030;-56
2021/11/22 08:19:13;;;;;;;7.80;2.67;;;;;;;;;;5005266;28;20038;-54
2021/11/22 08:21:40;;;;;;;4.43;1.60;;;;;;;;;;4989241;28;20042;-56
2021/11/22 08:24:06;;;;;;;3.17;1.40;;;;;;;;;;4986355;28;20123;-55
2021/11/22 08:26:33;;;;;;;11.85;1.85;;;;;;;;;;5003894;28;20038;-56
2021/11/22 08:29:00;;;;;;;16.17;1.95;;;;;;;;;;5001301;28;20119;-55
2021/11/22 08:31:26;;;;;;;19.25;1.98;;;;;;;;;;5007556;28;20054;-51
2021/11/22 08:33:53;;;;;;;20.48;1.60;;;;;;;;;;5004933;28;20057;-54
2021/11/22 08:36:21;;;;;;;6.40;1.38;;;;;;;;;;5008909;28;20034;-51
2021/11/22 08:38:52;;;;;;;4.90;2.03;;;;;;;;;;5003403;28;20073;-53
2021/11/22 08:41:19;;;;;;;5.65;1.02;;;;;;;;;;5007543;28;20103;-55
2021/11/22 08:43:45;;;;;;;4.15;1.13;;;;;;;;;;5020898;28;20048;-54
2021/11/22 08:46:12;;;;;;;5.90;1.00;;;;;;;;;;5008689;28;20034;-55
2021/11/22 08:48:46;;;;;;;3.10;1.20;;;;;;;;;;5006458;28;20034;-55
2021/11/22 08:51:13;;;;;;;8.82;1.10;;;;;;;;;;5026525;28;20061;-55
2021/11/22 08:53:40;;;;;;;5.72;1.17;;;;;;;;;;5009302;28;20044;-51
2021/11/22 08:56:07;;;;;;;6.03;1.20;;;;;;;;;;5027467;28;20049;-54
2021/11/22 08:58:46;;;;;;;5.97;1.05;;;;;;;;;;5021519;28;20115;-52
2021/11/22 09:01:13;;;;;;;6.13;1.33;;;;;;;;;;5002274;28;20050;-52
2021/11/22 09:03:39;;;;;;;5.55;1.33;;;;;;;;;;5000232;28;20046;-53
2021/11/22 09:06:06;;;;;;;2.75;1.13;;;;;;;;;;5007130;28;20046;-55
2021/11/22 09:08:43;;;;;;;5.97;1.70;;;;;;;;;;5007026;28;20033;-54
2021/11/22 09:11:09;;;;;;;3.75;1.20;;;;;;;;;;4967818;28;20042;-52
2021/11/22 09:13:39;;;;;;;2.20;1.00;;;;;;;;;;5000580;28;20153;-54
2021/11/22 09:16:06;;;;;;;2.75;1.00;;;;;;;;;;5003243;28;20042;-51
2021/11/22 09:18:36;;;;;;;3.50;1.00;;;;;;;;;;4988191;28;20030;-53
2021/11/22 09:21:04;;;;;;;8.57;1.10;;;;;;;;;;4996187;28;20112;-52
2021/11/22 09:23:31;;;;;;;2.10;1.10;;;;;;;;;;5008361;28;20042;-53
2021/11/22 09:25:59;;;;;;;4.00;1.38;;;;;;;;;;5002665;28;20041;-52
2021/11/22 09:28:29;;;;;;;3.73;0.90;;;;;;;;;;5007543;28;20041;-54
2021/11/22 09:30:56;;;;;;;2.65;0.60;;;;;;;;;;5003759;28;20036;-53
2021/11/22 09:33:23;;;;;;;3.85;0.82;;;;;;;;;;5001839;28;20094;-54
2021/11/22 09:35:49;;;;;;;3.03;0.85;;;;;;;;;;5003123;28;20041;-52
2021/11/22 09:38:16;;;;;;;1.70;0.60;;;;;;;;;;5004938;28;20038;-55
2021/11/22 09:40:43;;;;;;;3.03;0.80;;;;;;;;;;5015603;28;20074;-54
2021/11/22 09:43:11;;;;;;;3.42;0.70;;;;;;;;;;4995105;28;20038;-54
2021/11/22 09:45:38;;;;;;;0.63;0.53;;;;;;;;;;4980516;28;20038;-54
2021/11/22 09:48:06;;;;;;;1.90;0.60;;;;;;;;;;4968985;28;20046;-56
2021/11/22 09:50:33;;;;;;;3.83;0.90;;;;;;;;;;4984487;28;20042;-54
2021/11/22 09:53:00;;;;;;;1.00;0.60;;;;;;;;;;5008337;28;20120;-54
2021/11/22 09:55:29;;;;;;;2.50;0.70;;;;;;;;;;5005238;28;20393;-51
2021/11/22 09:57:56;;;;;;;2.00;0.70;;;;;;;;;;4967006;28;20284;-55
2021/11/22 10:00:26;;;;;;;4.20;0.80;;;;;;;;;;4968151;28;20363;-55
2021/11/22 10:02:53;;;;;;;2.92;0.60;;;;;;;;;;4997849;28;20101;-52
2021/11/22 10:05:21;;;;;;;2.67;0.80;;;;;;;;;;5008654;28;20115;-52
2021/11/22 10:07:58;;;;;;;3.08;0.68;;;;;;;;;;5005946;28;20041;-55
2021/11/22 10:10:25;;;;;;;3.25;0.65;;;;;;;;;;4993438;28;20070;-53
2021/11/22 10:12:52;;;;;;;3.42;0.77;;;;;;;;;;4991233;28;20157;-54
2021/11/22 10:15:18;;;;;;;1.10;0.50;;;;;;;;;;4983937;28;20043;-55
2021/11/22 10:17:48;;;;;;;1.50;0.50;;;;;;;;;;4982590;28;20053;-55
2021/11/22 10:20:19;;;;;;;3.85;0.77;;;;;;;;;;4986602;28;20053;-55
2021/11/22 10:22:47;;;;;;;2.15;0.63;;;;;;;;;;4984078;28;20046;-52
2021/11/22 10:25:18;;;;;;;4.20;0.77;;;;;;;;;;5001411;28;20455;-54
2021/11/22 10:27:44;;;;;;;2.28;0.85;;;;;;;;;;5004851;28;20056;-54
2021/11/22 10:30:28;;;;;;;1.15;0.60;;;;;;;;;;5009670;28;20048;-53
2021/11/22 10:32:56;;;;;;;1.67;0.60;;;;;;;;;;5005210;28;20038;-53
2021/11/22 10:35:24;;;;;;;3.20;0.70;;;;;;;;;;5008782;28;20065;-53
2021/11/22 10:37:57;;;;;;;1.90;0.60;;;;;;;;;;4999783;28;20030;-51
2021/11/22 10:40:25;;;;;;;1.63;0.55;;;;;;;;;;5005505;28;20026;-53
2021/11/22 10:42:52;;;;;;;2.33;0.52;;;;;;;;;;4987502;28;20051;-52
2021/11/22 10:45:22;;;;;;;2.63;0.50;;;;;;;;;;4987956;28;20034;-55
2021/11/22 10:48:20;;;;;;;1.30;0.60;;;;;;;;;;4987338;28;20033;-53
2021/11/22 10:50:52;;;;;;;2.00;0.63;;;;;;;;;;4975691;28;20057;-53
2021/11/22 10:53:26;;;;;;;0.50;0.40;;;;;;;;;;5006339;28;20025;-54
2021/11/22 10:55:52;;;;;;;2.53;0.52;;;;;;;;;;5009672;28;20030;-54
2021/11/22 11:01:29;;;;;;;1.80;0.57;;;;;;;;;;5002136;28;20045;-56
2021/11/22 11:03:57;;;;;;;1.58;0.65;;;;;;;;;;5004239;28;20138;-53
2021/11/22 11:06:42;;;;;;;3.40;0.80;;;;;;;;;;5010212;28;20030;-53
2021/11/22 11:09:17;;;;;;;2.78;0.68;;;;;;;;;;4995292;28;20085;-55
2021/11/22 11:11:43;;;;;;;3.50;0.70;;;;;;;;;;4988480;28;20050;-55
2021/11/22 11:14:12;;;;;;;1.63;0.70;;;;;;;;;;4989453;28;20135;-54
2021/11/22 11:16:40;;;;;;;2.45;0.75;;;;;;;;;;5024918;28;20049;-54
2021/11/22 11:19:08;;;;;;;3.80;0.77;;;;;;;;;;5002027;28;20054;-53
2021/11/22 11:21:36;;;;;;;1.17;0.45;;;;;;;;;;5005089;28;20052;-53
2021/11/22 11:24:04;;;;;;;2.70;0.70;;;;;;;;;;5005967;28;20109;-55
2021/11/22 11:26:31;;;;;;;5.28;0.55;;;;;;;;;;5009434;28;20116;-55
2021/11/22 11:29:07;;;;;;;2.20;0.50;;;;;;;;;;5009233;28;20042;-54
2021/11/22 11:31:35;;;;;;;2.53;0.60;;;;;;;;;;5004876;28;20123;-53
2021/11/22 11:34:04;;;;;;;0.68;0.40;;;;;;;;;;5006027;28;20034;-52
2021/11/22 11:36:40;;;;;;;2.17;0.55;;;;;;;;;;4986779;28;20046;-56
2021/11/22 11:39:17;;;;;;;0.77;0.38;;;;;;;;;;4988133;28;20046;-53
2021/11/22 11:41:46;;;;;;;0.77;0.50;;;;;;;;;;5000972;28;20053;-54
2021/11/22 11:44:22;;;;;;;4.63;0.60;;;;;;;;;;5004090;28;20046;-53
2021/11/22 11:46:57;;;;;;;0.75;0.38;;;;;;;;;;5003900;28;20033;-56
2021/11/22 11:49:30;;;;;;;0.65;0.40;;;;;;;;;;5006883;28;20123;-55
2021/11/22 11:51:57;;;;;;;1.75;0.45;;;;;;;;;;5001870;28;20046;-54
2021/11/22 11:54:25;;;;;;;0.55;0.30;;;;;;;;;;5004087;28;20050;-55
2021/11/22 11:56:54;;;;;;;2.25;0.40;;;;;;;;;;4978008;28;20050;-55
2021/11/22 11:59:22;;;;;;;;;;;;;;;;;;4969322;28;20066;-55
2021/11/22 12:02:08;;;;;;;1.00;0.40;;;;;;;;;;4989202;28;19913;-54
2021/11/22 12:04:57;;;;;;;2.15;0.40;;;;;;;;;;5007403;28;20038;-55
2021/11/22 12:07:25;;;;;;;1.10;0.40;;;;;;;;;;4984033;28;20030;-54
2021/11/22 12:10:09;;;;;;;2.70;0.50;;;;;;;;;;4989535;28;20504;-54
2021/11/22 12:12:37;;;;;;;0.55;0.40;;;;;;;;;;4991113;28;20046;-54
2021/11/22 12:15:05;;;;;;;2.80;0.35;;;;;;;;;;4989519;28;20057;-55
2021/11/22 12:18:05;;;;;;;2.28;0.65;;;;;;;;;;5003529;28;20054;-56
2021/11/22 12:20:42;;;;;;;0.68;0.43;;;;;;;;;;4987512;28;20030;-54
2021/11/22 12:23:10;;;;;;;2.42;0.60;;;;;;;;;;5002080;28;20038;-53
2021/11/22 12:25:43;;;;;;;2.67;0.40;;;;;;;;;;5008746;28;20030;-56
2021/11/22 12:28:12;;;;;;;0.30;0.30;;;;;;;;;;4999977;28;20034;-55
2021/11/22 12:30:39;;;;;;;3.13;0.52;;;;;;;;;;5022865;28;20057;-54
2021/11/22 12:33:30;;;;;;;2.15;0.57;;;;;;;;;;5021496;28;20034;-55
2021/11/22 12:35:59;;;;;;;1.08;0.32;;;;;;;;;;5009123;28;20037;-57
2021/11/22 12:38:29;;;;;;;1.42;0.32;;;;;;;;;;4976213;28;20041;-56
2021/11/22 12:40:59;;;;;;;2.50;0.50;;;;;;;;;;4967289;28;20105;-55
2021/11/22 12:43:39;;;;;;;2.15;0.43;;;;;;;;;;4986326;28;20156;-53
2021/11/22 12:46:06;;;;;;;2.08;0.50;;;;;;;;;;5007007;28;20220;-54
2021/11/22 12:48:36;;;;;;;0.22;0.22;;;;;;;;;;4999449;28;20052;-53
2021/11/22 12:51:04;;;;;;;4.07;0.50;;;;;;;;;;5004516;28;20038;-53
2021/11/22 12:53:30;;;;;;;1.10;0.40;;;;;;;;;;5002827;28;20038;-54
2021/11/22 12:55:58;;;;;;;3.58;0.43;;;;;;;;;;5008853;28;20038;-55
2021/11/22 12:58:27;;;;;;;3.28;0.65;;;;;;;;;;4997720;28;20057;-56
2021/11/22 13:00:54;;;;;;;3.63;0.30;;;;;;;;;;4970633;28;20050;-55
2021/11/22 13:03:22;;;;;;;0.57;0.32;;;;;;;;;;5010843;28;20030;-53
2021/11/22 13:05:57;;;;;;;0.30;0.30;;;;;;;;;;4988016;28;20062;-55
2021/11/22 13:08:39;;;;;;;0.82;0.35;;;;;;;;;;4989325;28;20337;-52
2021/11/22 13:11:14;;;;;;;1.40;0.40;;;;;;;;;;5007020;28;20115;-54
2021/11/22 13:13:42;;;;;;;2.30;0.40;;;;;;;;;;4999001;28;20044;-55
2021/11/22 13:16:13;;;;;;;1.33;0.25;;;;;;;;;;5007165;28;20048;-55
2021/11/22 13:18:42;;;;;;;3.70;0.45;;;;;;;;;;5018987;28;20050;-56
2021/11/22 13:21:13;;;;;;;0.20;0.20;;;;;;;;;;4988395;28;20034;-53
2021/11/22 13:23:40;;;;;;;0.93;0.30;;;;;;;;;;4985131;28;20042;-56
2021/11/22 13:26:14;;;;;;;1.42;0.40;;;;;;;;;;4988146;28;20042;-53
2021/11/22 13:28:49;;;;;;;1.85;0.40;;;;;;;;;;4987523;28;20046;-55
2021/11/22 13:31:15;;;;;;;0.35;0.30;;;;;;;;;;5022543;28;20046;-57
2021/11/22 13:33:42;;;;;;;2.45;0.40;;;;;;;;;;5006327;28;20049;-54
2021/11/22 13:36:08;;;;;;;2.47;0.65;;;;;;;;;;4989027;28;20045;-55
2021/11/22 13:38:43;;;;;;;1.70;0.40;;;;;;;;;;4995854;28;20033;-55
2021/11/22 13:41:13;;;;;;;0.57;0.40;;;;;;;;;;4988886;28;20026;-54
2021/11/22 13:43:40;;;;;;;1.33;0.28;;;;;;;;;;4988119;28;20041;-56
2021/11/22 13:46:07;;;;;;;1.42;0.55;;;;;;;;;;4997474;28;20041;-56
2021/11/22 13:48:52;;;;;;;2.92;0.30;;;;;;;;;;5008138;28;20048;-54
2021/11/22 13:51:20;;;;;;;0.55;0.40;;;;;;;;;;5004307;28;20058;-55
2021/11/22 13:53:47;;;;;;;1.95;0.30;;;;;;;;;;4988167;28;20461;-56
2021/11/22 13:56:26;;;;;;;0.88;0.30;;;;;;;;;;4995354;28;20050;-56
2021/11/22 13:58:53;;;;;;;1.60;0.32;;;;;;;;;;5007311;28;20042;-57
2021/11/22 14:01:19;;;;;;;0.63;0.38;;;;;;;;;;5001857;28;20041;-54
2021/11/22 14:03:46;;;;;;;1.00;0.43;;;;;;;;;;5007576;28;20045;-57
2021/11/22 14:06:13;;;;;;;8.05;0.45;;;;;;;;;;4995077;28;20038;-52
2021/11/22 14:08:43;;;;;;;1.38;0.43;;;;;;;;;;4987017;28;20120;-55
2021/11/22 14:11:19;;;;;;;0.75;0.25;;;;;;;;;;4988460;28;20119;-55
2021/11/22 14:13:47;;;;;;;1.17;0.30;;;;;;;;;;5005604;28;20121;-56
2021/11/22 14:16:17;;;;;;;0.43;0.30;;;;;;;;;;5004409;28;20046;-56
2021/11/22 14:18:45;;;;;;;2.88;0.70;;;;;;;;;;5005781;28;20045;-55
2021/11/22 14:21:12;;;;;;;0.77;0.43;;;;;;;;;;5003072;28;20057;-55
2021/11/22 14:23:39;;;;;;;1.33;0.35;;;;;;;;;;5009942;28;20053;-53
2021/11/22 14:26:06;;;;;;;1.30;0.25;;;;;;;;;;5022575;28;20029;-56
2021/11/22 14:28:40;;;;;;;4.38;0.60;;;;;;;;;;5007475;28;20049;-55
2021/11/22 14:31:08;;;;;;;1.52;0.80;;;;;;;;;;5006579;28;20048;-56
2021/11/22 14:33:36;;;;;;;3.72;0.50;;;;;;;;;;5029794;28;20033;-55
2021/11/22 14:36:03;;;;;;;2.05;0.50;;;;;;;;;;5025192;28;20030;-54
2021/11/22 14:38:42;;;;;;;1.03;0.40;;;;;;;;;;5000603;28;20116;-54
2021/11/22 14:41:16;;;;;;;0.52;0.20;;;;;;;;;;5002231;28;20030;-55
2021/11/22 14:43:44;;;;;;;1.60;0.28;;;;;;;;;;5020967;28;20059;-56
2021/11/22 14:46:17;;;;;;;3.25;0.45;;;;;;;;;;5025729;28;20484;-56
2021/11/22 14:48:47;;;;;;;216.63;5.35;;;;;;;;;;4991682;28;20142;-55
2021/11/22 14:51:14;;;;;;;37.88;1.92;;;;;;;;;;4986939;28;20038;-49
2021/11/22 14:53:41;;;;;;;3.58;0.63;;;;;;;;;;5001177;28;20040;-55